Hlavní strana
METAR-TAF:

METAR-TAF

Letiště :

Kuressaare, Estonsko

zeměpisná šířka: 58-13-48N, zeměpisná délka: 022-30-34E, výška: 4 m

Aktuální stav počasí

Zpráva byla vytvořena před 1 hodinou a 5 minutami, v 18:50 UTC
Západoseverozápadní vítr 4 kt
Teplota 10°C
Vlhkost vzduchu 87%
Tlak 1000 hPa
Viditelnost 10 km a více
Skoro jasno ve výšce 2900 ft

METAR: EEKE 231850Z AUTO 30004KT 9999NDV FEW029 10/08 Q1000

Čas: 22:55 (19:55 UTC)

Předpověď počasí

Zpráva byla vytvořena před 5 hodinami a 55 minutami, v 14:00 UTC
Předpověď platná od 23 v 15 UTC do 23 v 21 UTC
Západní vítr 10 kt
Viditelnost 10 km a více
Polojasno ve výšce 3500 ft
Dočasný
od 23 v 15 UTC do 23 v 19 UTC
Viditelnost: 5000 m
Skoro jasno ve výšce 2000 ft, Cumulonimbus.
Oblačno až skoro zataženo ve výšce 3500 ft
dešťové přeháňky
Pravděpodobnost 40% :
Dočasný
od 23 v 15 UTC do 23 v 19 UTC
bouřka, déšť

TAF: EEKE 231400Z 2315/2321 27010KT 9999 SCT035 TEMPO 2315/2319 5000 SHRA FEW020CB BKN035 PROB40 TEMPO 2315/2319 TSRA

Stav a předpovědi počasí z více než 4 000 letišť (zprávy METAR a TAF).

Červené a žluté tečky na mapě představují dostupné meteorologické stanice.

Když kurzor umístíte na tečku, zobrazí se název stanice.

Pak kliknutím zobrazíte stav a předpověď počasí.

Chcete-li změnit mapu, kliknutím na zelené tlačítko se znaménkem +mapu přiblížíte, kliknutím na zelené tlačítko se znaménkem – mapu oddálíte a kliknutím na zelené šipky přejdete na sousední mapy.


METAR-TAF: